sensor_id;sensor_type;location;lat;lon;timestamp;pressure;altitude;pressure_sealevel;temperature;humidity
54854;BME280;40747;49.480;8.658;2024-02-15T00:01:54;100776.50;;;11.65;100.00
54854;BME280;40747;49.480;8.658;2024-02-15T00:04:20;100778.94;;;11.71;100.00
54854;BME280;40747;49.480;8.658;2024-02-15T00:06:45;100785.13;;;11.70;100.00
54854;BME280;40747;49.480;8.658;2024-02-15T00:09:10;100779.75;;;11.73;100.00
54854;BME280;40747;49.480;8.658;2024-02-15T00:11:36;100781.50;;;11.74;100.00
54854;BME280;40747;49.480;8.658;2024-02-15T00:14:01;100773.63;;;11.73;100.00
54854;BME280;40747;49.480;8.658;2024-02-15T00:16:26;100769.94;;;11.78;100.00
54854;BME280;40747;49.480;8.658;2024-02-15T00:18:52;100777.06;;;11.75;100.00
54854;BME280;40747;49.480;8.658;2024-02-15T00:21:20;100775.44;;;11.71;100.00
54854;BME280;40747;49.480;8.658;2024-02-15T00:23:45;100778.06;;;11.71;100.00
54854;BME280;40747;49.480;8.658;2024-02-15T00:26:11;100769.22;;;11.73;100.00
54854;BME280;40747;49.480;8.658;2024-02-15T00:28:37;100775.34;;;11.74;100.00
54854;BME280;40747;49.480;8.658;2024-02-15T00:31:02;100766.53;;;11.75;100.00
54854;BME280;40747;49.480;8.658;2024-02-15T00:33:28;100760.44;;;11.73;100.00
54854;BME280;40747;49.480;8.658;2024-02-15T00:35:54;100763.25;;;11.67;100.00
54854;BME280;40747;49.480;8.658;2024-02-15T00:38:19;100757.22;;;11.61;100.00
54854;BME280;40747;49.480;8.658;2024-02-15T00:40:44;100744.72;;;11.68;100.00
54854;BME280;40747;49.480;8.658;2024-02-15T00:43:10;100755.16;;;11.73;100.00
54854;BME280;40747;49.480;8.658;2024-02-15T00:45:36;100752.41;;;11.76;100.00
54854;BME280;40747;49.480;8.658;2024-02-15T00:48:01;100762.34;;;11.68;100.00
54854;BME280;40747;49.480;8.658;2024-02-15T00:50:26;100752.97;;;11.57;100.00
54854;BME280;40747;49.480;8.658;2024-02-15T00:52:51;100762.47;;;11.63;100.00
54854;BME280;40747;49.480;8.658;2024-02-15T00:55:17;100748.38;;;11.64;100.00
54854;BME280;40747;49.480;8.658;2024-02-15T00:57:42;100749.03;;;11.71;100.00
54854;BME280;40747;49.480;8.658;2024-02-15T01:00:08;100752.22;;;11.52;100.00
54854;BME280;40747;49.480;8.658;2024-02-15T01:02:34;100745.28;;;11.48;100.00
54854;BME280;40747;49.480;8.658;2024-02-15T01:05:00;100738.47;;;11.39;100.00
54854;BME280;40747;49.480;8.658;2024-02-15T01:07:26;100741.06;;;11.42;100.00
54854;BME280;40747;49.480;8.658;2024-02-15T01:09:53;100740.66;;;11.56;100.00
54854;BME280;40747;49.480;8.658;2024-02-15T01:12:18;100732.75;;;11.56;100.00
54854;BME280;40747;49.480;8.658;2024-02-15T01:14:44;100732.69;;;11.58;100.00
54854;BME280;40747;49.480;8.658;2024-02-15T01:17:09;100743.22;;;11.59;100.00
54854;BME280;40747;49.480;8.658;2024-02-15T01:19:34;100746.41;;;11.71;100.00
54854;BME280;40747;49.480;8.658;2024-02-15T01:22:00;100754.44;;;11.68;100.00
54854;BME280;40747;49.480;8.658;2024-02-15T01:24:25;100752.47;;;11.74;100.00
54854;BME280;40747;49.480;8.658;2024-02-15T01:26:50;100754.28;;;11.72;100.00
54854;BME280;40747;49.480;8.658;2024-02-15T01:29:16;100733.38;;;11.64;100.00
54854;BME280;40747;49.480;8.658;2024-02-15T01:31:42;100749.50;;;11.85;100.00
54854;BME280;40747;49.480;8.658;2024-02-15T01:34:07;100748.88;;;11.77;100.00
54854;BME280;40747;49.480;8.658;2024-02-15T01:36:33;100750.94;;;11.66;100.00
54854;BME280;40747;49.480;8.658;2024-02-15T01:38:58;100745.72;;;11.64;100.00
54854;BME280;40747;49.480;8.658;2024-02-15T01:41:23;100753.66;;;11.64;100.00
54854;BME280;40747;49.480;8.658;2024-02-15T01:43:48;100710.19;;;11.44;100.00
54854;BME280;40747;49.480;8.658;2024-02-15T01:46:15;100753.53;;;11.67;100.00
54854;BME280;40747;49.480;8.658;2024-02-15T01:48:41;100738.75;;;11.61;100.00
54854;BME280;40747;49.480;8.658;2024-02-15T01:51:07;100742.03;;;11.70;100.00
54854;BME280;40747;49.480;8.658;2024-02-15T01:53:35;100732.53;;;11.64;100.00
54854;BME280;40747;49.480;8.658;2024-02-15T01:56:00;100746.50;;;11.68;100.00
54854;BME280;40747;49.480;8.658;2024-02-15T01:58:27;100753.44;;;11.72;100.00
54854;BME280;40747;49.480;8.658;2024-02-15T02:00:53;100746.34;;;11.72;100.00
54854;BME280;40747;49.480;8.658;2024-02-15T02:03:21;100740.91;;;11.78;100.00
54854;BME280;40747;49.480;8.658;2024-02-15T02:05:46;100738.88;;;11.57;100.00
54854;BME280;40747;49.480;8.658;2024-02-15T02:08:11;100734.78;;;11.46;100.00
54854;BME280;40747;49.480;8.658;2024-02-15T02:10:37;100717.03;;;11.52;100.00
54854;BME280;40747;49.480;8.658;2024-02-15T02:13:03;100727.25;;;11.64;100.00
54854;BME280;40747;49.480;8.658;2024-02-15T02:15:29;100714.97;;;11.63;100.00
54854;BME280;40747;49.480;8.658;2024-02-15T02:17:57;100730.31;;;11.80;100.00
54854;BME280;40747;49.480;8.658;2024-02-15T02:20:25;100725.84;;;11.82;100.00
54854;BME280;40747;49.480;8.658;2024-02-15T02:22:57;100729.28;;;11.86;100.00
54854;BME280;40747;49.480;8.658;2024-02-15T02:25:26;100718.16;;;11.74;100.00
54854;BME280;40747;49.480;8.658;2024-02-15T02:27:53;100723.56;;;11.70;100.00
54854;BME280;40747;49.480;8.658;2024-02-15T02:30:19;100723.97;;;11.56;100.00
54854;BME280;40747;49.480;8.658;2024-02-15T02:32:47;100727.25;;;11.64;100.00
54854;BME280;40747;49.480;8.658;2024-02-15T02:35:13;100723.50;;;11.71;100.00
54854;BME280;40747;49.480;8.658;2024-02-15T02:37:39;100717.09;;;11.80;100.00
54854;BME280;40747;49.480;8.658;2024-02-15T02:40:08;100724.78;;;11.89;100.00
54854;BME280;40747;49.480;8.658;2024-02-15T02:42:54;100724.72;;;11.91;100.00
54854;BME280;40747;49.480;8.658;2024-02-15T02:45:21;100719.00;;;11.75;100.00
54854;BME280;40747;49.480;8.658;2024-02-15T02:47:48;100725.41;;;11.68;100.00
54854;BME280;40747;49.480;8.658;2024-02-15T02:50:13;100716.66;;;11.66;100.00
54854;BME280;40747;49.480;8.658;2024-02-15T02:52:39;100712.09;;;11.71;100.00
54854;BME280;40747;49.480;8.658;2024-02-15T02:55:05;100711.88;;;11.78;100.00
54854;BME280;40747;49.480;8.658;2024-02-15T02:57:34;100716.31;;;11.78;100.00
54854;BME280;40747;49.480;8.658;2024-02-15T03:00:00;100713.00;;;11.70;100.00
54854;BME280;40747;49.480;8.658;2024-02-15T03:02:29;100716.81;;;11.59;100.00
54854;BME280;40747;49.480;8.658;2024-02-15T03:04:54;100708.41;;;11.46;100.00
54854;BME280;40747;49.480;8.658;2024-02-15T03:07:19;100709.47;;;11.39;100.00
54854;BME280;40747;49.480;8.658;2024-02-15T03:09:45;100717.38;;;11.39;100.00
54854;BME280;40747;49.480;8.658;2024-02-15T03:12:10;100718.53;;;11.30;100.00
54854;BME280;40747;49.480;8.658;2024-02-15T03:14:36;100709.56;;;11.36;100.00
54854;BME280;40747;49.480;8.658;2024-02-15T03:17:01;100712.09;;;11.39;100.00
54854;BME280;40747;49.480;8.658;2024-02-15T03:19:28;100718.16;;;11.43;100.00
54854;BME280;40747;49.480;8.658;2024-02-15T03:21:55;100718.00;;;11.49;100.00
54854;BME280;40747;49.480;8.658;2024-02-15T03:24:21;100717.72;;;11.58;100.00
54854;BME280;40747;49.480;8.658;2024-02-15T03:26:46;100717.72;;;11.60;100.00
54854;BME280;40747;49.480;8.658;2024-02-15T03:29:11;100709.00;;;11.56;100.00
54854;BME280;40747;49.480;8.658;2024-02-15T03:31:36;100717.25;;;11.44;100.00
54854;BME280;40747;49.480;8.658;2024-02-15T03:34:05;100719.63;;;11.53;100.00
54854;BME280;40747;49.480;8.658;2024-02-15T03:36:30;100719.91;;;11.44;100.00
54854;BME280;40747;49.480;8.658;2024-02-15T03:38:56;100724.06;;;11.53;100.00
54854;BME280;40747;49.480;8.658;2024-02-15T03:41:22;100713.41;;;11.56;100.00
54854;BME280;40747;49.480;8.658;2024-02-15T03:43:47;100718.66;;;11.57;100.00
54854;BME280;40747;49.480;8.658;2024-02-15T03:46:13;100713.38;;;11.57;100.00
54854;BME280;40747;49.480;8.658;2024-02-15T03:48:42;100718.38;;;11.67;100.00
54854;BME280;40747;49.480;8.658;2024-02-15T03:51:09;100721.59;;;11.46;100.00
54854;BME280;40747;49.480;8.658;2024-02-15T03:53:34;100722.31;;;11.52;100.00
54854;BME280;40747;49.480;8.658;2024-02-15T03:56:03;100725.16;;;11.44;100.00
54854;BME280;40747;49.480;8.658;2024-02-15T03:58:28;100723.69;;;11.34;100.00
54854;BME280;40747;49.480;8.658;2024-02-15T04:00:55;100727.91;;;11.41;100.00
54854;BME280;40747;49.480;8.658;2024-02-15T04:03:22;100712.41;;;11.28;100.00
54854;BME280;40747;49.480;8.658;2024-02-15T04:05:47;100730.09;;;11.25;100.00
54854;BME280;40747;49.480;8.658;2024-02-15T04:08:13;100727.50;;;11.23;100.00
54854;BME280;40747;49.480;8.658;2024-02-15T04:10:41;100719.16;;;11.06;100.00
54854;BME280;40747;49.480;8.658;2024-02-15T04:13:06;100727.66;;;11.17;100.00
54854;BME280;40747;49.480;8.658;2024-02-15T04:15:32;100718.84;;;11.18;100.00
54854;BME280;40747;49.480;8.658;2024-02-15T04:17:58;100718.75;;;11.21;100.00
54854;BME280;40747;49.480;8.658;2024-02-15T04:20:25;100693.75;;;11.03;100.00
54854;BME280;40747;49.480;8.658;2024-02-15T04:22:50;100713.81;;;11.09;100.00
54854;BME280;40747;49.480;8.658;2024-02-15T04:25:15;100721.44;;;11.20;100.00
54854;BME280;40747;49.480;8.658;2024-02-15T04:27:44;100708.00;;;11.29;100.00
54854;BME280;40747;49.480;8.658;2024-02-15T04:30:10;100713.56;;;11.18;100.00
54854;BME280;40747;49.480;8.658;2024-02-15T04:32:36;100709.94;;;11.22;100.00
54854;BME280;40747;49.480;8.658;2024-02-15T04:35:01;100711.41;;;11.32;100.00
54854;BME280;40747;49.480;8.658;2024-02-15T04:37:27;100699.97;;;11.34;100.00
54854;BME280;40747;49.480;8.658;2024-02-15T04:39:54;100705.34;;;11.29;100.00
54854;BME280;40747;49.480;8.658;2024-02-15T04:42:19;100704.25;;;11.38;100.00
54854;BME280;40747;49.480;8.658;2024-02-15T04:44:45;100706.88;;;11.38;100.00
54854;BME280;40747;49.480;8.658;2024-02-15T04:47:10;100710.28;;;11.41;100.00
54854;BME280;40747;49.480;8.658;2024-02-15T04:49:36;100704.06;;;11.44;100.00
54854;BME280;40747;49.480;8.658;2024-02-15T04:52:03;100696.22;;;11.42;100.00
54854;BME280;40747;49.480;8.658;2024-02-15T04:54:29;100703.97;;;11.47;100.00
54854;BME280;40747;49.480;8.658;2024-02-15T04:56:54;100695.25;;;11.45;100.00
54854;BME280;40747;49.480;8.658;2024-02-15T04:59:22;100693.69;;;11.38;100.00
54854;BME280;40747;49.480;8.658;2024-02-15T05:01:51;100703.25;;;11.42;100.00
54854;BME280;40747;49.480;8.658;2024-02-15T05:04:16;100696.94;;;11.47;100.00
54854;BME280;40747;49.480;8.658;2024-02-15T05:06:43;100685.03;;;11.32;100.00
54854;BME280;40747;49.480;8.658;2024-02-15T05:09:10;100696.88;;;11.49;100.00
54854;BME280;40747;49.480;8.658;2024-02-15T05:11:39;100696.81;;;11.52;100.00
54854;BME280;40747;49.480;8.658;2024-02-15T05:14:11;100688.16;;;11.47;100.00
54854;BME280;40747;49.480;8.658;2024-02-15T05:16:36;100688.06;;;11.50;100.00
54854;BME280;40747;49.480;8.658;2024-02-15T05:19:08;100687.94;;;11.55;100.00
54854;BME280;40747;49.480;8.658;2024-02-15T05:21:33;100690.59;;;11.53;100.00
54854;BME280;40747;49.480;8.658;2024-02-15T05:23:59;100691.34;;;11.58;100.00
54854;BME280;40747;49.480;8.658;2024-02-15T05:26:24;100687.72;;;11.62;100.00
54854;BME280;40747;49.480;8.658;2024-02-15T05:28:50;100692.91;;;11.66;100.00
54854;BME280;40747;49.480;8.658;2024-02-15T05:31:20;100682.16;;;11.72;100.00
54854;BME280;40747;49.480;8.658;2024-02-15T05:33:51;100688.47;;;11.68;100.00
54854;BME280;40747;49.480;8.658;2024-02-15T05:36:19;100681.56;;;11.62;100.00
54854;BME280;40747;49.480;8.658;2024-02-15T05:38:45;100621.06;;;11.26;100.00
54854;BME280;40747;49.480;8.658;2024-02-15T05:41:11;100689.53;;;11.60;100.00
54854;BME280;40747;49.480;8.658;2024-02-15T05:43:37;100692.81;;;11.69;100.00
54854;BME280;40747;49.480;8.658;2024-02-15T05:46:03;100687.75;;;11.61;100.00
54854;BME280;40747;49.480;8.658;2024-02-15T05:48:29;100688.53;;;11.64;100.00
54854;BME280;40747;49.480;8.658;2024-02-15T05:50:55;100691.16;;;11.64;100.00
54854;BME280;40747;49.480;8.658;2024-02-15T05:53:22;100681.56;;;11.62;100.00
54854;BME280;40747;49.480;8.658;2024-02-15T05:55:47;100685.81;;;11.68;100.00
54854;BME280;40747;49.480;8.658;2024-02-15T05:58:15;100690.31;;;11.64;100.00
54854;BME280;40747;49.480;8.658;2024-02-15T06:00:40;100687.00;;;11.57;100.00
54854;BME280;40747;49.480;8.658;2024-02-15T06:03:06;100690.59;;;11.53;100.00
54854;BME280;40747;49.480;8.658;2024-02-15T06:05:32;100693.34;;;11.50;100.00
54854;BME280;40747;49.480;8.658;2024-02-15T06:07:59;100673.47;;;11.38;100.00
54854;BME280;40747;49.480;8.658;2024-02-15T06:10:25;100693.25;;;11.53;100.00
54854;BME280;40747;49.480;8.658;2024-02-15T06:12:51;100693.19;;;11.56;100.00
54854;BME280;40747;49.480;8.658;2024-02-15T06:15:16;100684.59;;;11.50;99.44
54854;BME280;40747;49.480;8.658;2024-02-15T06:17:42;100672.47;;;11.42;99.36
54854;BME280;40747;49.480;8.658;2024-02-15T06:20:15;100686.06;;;11.58;100.00
54854;BME280;40747;49.480;8.658;2024-02-15T06:22:42;100678.59;;;11.43;100.00
54854;BME280;40747;49.480;8.658;2024-02-15T06:25:08;100651.72;;;11.30;100.00
54854;BME280;40747;49.480;8.658;2024-02-15T06:27:35;100675.09;;;11.42;100.00
54854;BME280;40747;49.480;8.658;2024-02-15T06:30:06;100673.53;;;11.35;100.00
54854;BME280;40747;49.480;8.658;2024-02-15T06:32:50;100665.56;;;11.37;100.00
54854;BME280;40747;49.480;8.658;2024-02-15T06:35:34;100670.94;;;11.34;100.00
54854;BME280;40747;49.480;8.658;2024-02-15T06:38:18;100672.00;;;11.28;100.00
54854;BME280;40747;49.480;8.658;2024-02-15T06:41:02;100671.94;;;11.29;100.00
54854;BME280;40747;49.480;8.658;2024-02-15T06:43:28;100669.31;;;11.29;100.00
54854;BME280;40747;49.480;8.658;2024-02-15T06:45:53;100671.72;;;11.37;100.00
54854;BME280;40747;49.480;8.658;2024-02-15T06:48:20;100664.72;;;11.36;100.00
54854;BME280;40747;49.480;8.658;2024-02-15T06:50:48;100669.78;;;11.44;100.00
54854;BME280;40747;49.480;8.658;2024-02-15T06:53:14;100670.72;;;11.41;100.00
54854;BME280;40747;49.480;8.658;2024-02-15T06:55:40;100671.94;;;11.29;100.00
54854;BME280;40747;49.480;8.658;2024-02-15T06:58:05;100665.56;;;11.37;100.00
54854;BME280;40747;49.480;8.658;2024-02-15T07:00:31;100671.47;;;11.46;100.00
54854;BME280;40747;49.480;8.658;2024-02-15T07:02:56;100676.78;;;11.45;100.00
54854;BME280;40747;49.480;8.658;2024-02-15T07:05:21;100667.09;;;11.45;100.00
54854;BME280;40747;49.480;8.658;2024-02-15T07:07:48;100661.00;;;11.43;99.62
54854;BME280;40747;49.480;8.658;2024-02-15T07:10:14;100674.16;;;11.45;100.00
54854;BME280;40747;49.480;8.658;2024-02-15T07:12:42;100665.16;;;11.52;99.73
54854;BME280;40747;49.480;8.658;2024-02-15T07:15:09;100665.13;;;11.54;99.56
54854;BME280;40747;49.480;8.658;2024-02-15T07:17:34;100664.06;;;11.59;100.00
54854;BME280;40747;49.480;8.658;2024-02-15T07:20:02;100663.38;;;11.53;99.07
54854;BME280;40747;49.480;8.658;2024-02-15T07:22:30;100668.59;;;11.54;99.32
54854;BME280;40747;49.480;8.658;2024-02-15T07:24:56;100672.06;;;11.56;98.85
54854;BME280;40747;49.480;8.658;2024-02-15T07:27:21;100671.06;;;11.60;98.58
54854;BME280;40747;49.480;8.658;2024-02-15T07:29:50;100674.22;;;11.73;99.36
54854;BME280;40747;49.480;8.658;2024-02-15T07:32:15;100659.44;;;11.68;98.20
54854;BME280;40747;49.480;8.658;2024-02-15T07:34:42;100669.69;;;11.77;99.31
54854;BME280;40747;49.480;8.658;2024-02-15T07:37:09;100660.00;;;11.77;98.85
54854;BME280;40747;49.480;8.658;2024-02-15T07:39:35;100653.88;;;11.77;97.90
54854;BME280;40747;49.480;8.658;2024-02-15T07:42:01;100657.31;;;11.79;99.37
54854;BME280;40747;49.480;8.658;2024-02-15T07:44:30;100645.13;;;11.75;97.26
54854;BME280;40747;49.480;8.658;2024-02-15T07:46:58;100654.47;;;11.85;97.28
54854;BME280;40747;49.480;8.658;2024-02-15T07:49:25;100652.53;;;11.92;98.10
54854;BME280;40747;49.480;8.658;2024-02-15T07:51:51;100658.72;;;11.91;97.48
54854;BME280;40747;49.480;8.658;2024-02-15T07:54:19;100655.88;;;11.99;96.74
54854;BME280;40747;49.480;8.658;2024-02-15T07:56:46;100656.59;;;12.04;97.86
54854;BME280;40747;49.480;8.658;2024-02-15T07:59:12;100665.28;;;12.07;97.48
54854;BME280;40747;49.480;8.658;2024-02-15T08:01:40;100669.38;;;12.18;97.36
54854;BME280;40747;49.480;8.658;2024-02-15T08:04:05;100649.59;;;12.03;96.49
54854;BME280;40747;49.480;8.658;2024-02-15T08:06:33;100670.28;;;12.17;96.32
54854;BME280;40747;49.480;8.658;2024-02-15T08:08:58;100669.38;;;12.18;95.55
54854;BME280;40747;49.480;8.658;2024-02-15T08:11:24;100671.06;;;12.20;95.05
54854;BME280;40747;49.480;8.658;2024-02-15T08:13:52;100676.94;;;12.28;95.16
54854;BME280;40747;49.480;8.658;2024-02-15T08:16:21;100673.38;;;12.29;94.36
54854;BME280;40747;49.480;8.658;2024-02-15T08:18:51;100679.69;;;12.25;95.31
54854;BME280;40747;49.480;8.658;2024-02-15T08:21:30;100678.28;;;12.42;94.65
54854;BME280;40747;49.480;8.658;2024-02-15T08:24:00;100687.19;;;12.38;94.34
54854;BME280;40747;49.480;8.658;2024-02-15T08:26:32;100676.44;;;12.44;94.74
54854;BME280;40747;49.480;8.658;2024-02-15T08:28:58;100678.38;;;12.39;94.97
54854;BME280;40747;49.480;8.658;2024-02-15T08:31:23;100674.56;;;12.48;93.54
54854;BME280;40747;49.480;8.658;2024-02-15T08:33:48;100672.03;;;12.44;93.60
54854;BME280;40747;49.480;8.658;2024-02-15T08:36:14;100661.03;;;11.42;98.00
54854;BME280;40747;49.480;8.658;2024-02-15T08:38:39;100680.72;;;11.30;100.00
54854;BME280;40747;49.480;8.658;2024-02-15T08:41:06;100672.44;;;11.11;100.00
54854;BME280;40747;49.480;8.658;2024-02-15T08:43:33;100676.72;;;11.15;100.00
54854;BME280;40747;49.480;8.658;2024-02-15T08:45:58;100676.13;;;11.37;100.00
54854;BME280;40747;49.480;8.658;2024-02-15T08:48:24;100678.66;;;11.41;100.00
54854;BME280;40747;49.480;8.658;2024-02-15T08:50:51;100677.69;;;11.44;100.00
54854;BME280;40747;49.480;8.658;2024-02-15T08:53:16;100671.06;;;11.29;100.00
54854;BME280;40747;49.480;8.658;2024-02-15T08:55:44;100672.97;;;11.55;100.00
54854;BME280;40747;49.480;8.658;2024-02-15T08:58:10;100674.84;;;11.52;100.00
54854;BME280;40747;49.480;8.658;2024-02-15T09:00:35;100671.91;;;11.62;100.00
54854;BME280;40747;49.480;8.658;2024-02-15T09:03:02;100673.41;;;12.01;99.87
54854;BME280;40747;49.480;8.658;2024-02-15T09:05:28;100674.06;;;12.08;98.87
54854;BME280;40747;49.480;8.658;2024-02-15T09:07:53;100674.63;;;12.46;95.77
54854;BME280;40747;49.480;8.658;2024-02-15T09:10:19;100654.44;;;12.70;95.21
54854;BME280;40747;49.480;8.658;2024-02-15T09:12:45;100662.03;;;12.79;95.28
54854;BME280;40747;49.480;8.658;2024-02-15T09:15:14;100662.47;;;12.92;91.98
54854;BME280;40747;49.480;8.658;2024-02-15T09:17:40;100654.97;;;13.05;92.39
54854;BME280;40747;49.480;8.658;2024-02-15T09:20:09;100643.91;;;13.44;90.76
54854;BME280;40747;49.480;8.658;2024-02-15T09:22:43;100650.28;;;13.63;90.27
54854;BME280;40747;49.480;8.658;2024-02-15T09:25:09;100646.47;;;13.70;89.62
54854;BME280;40747;49.480;8.658;2024-02-15T09:27:35;100597.09;;;13.69;88.60
54854;BME280;40747;49.480;8.658;2024-02-15T09:30:01;100643.53;;;14.22;85.63
54854;BME280;40747;49.480;8.658;2024-02-15T09:32:27;100637.66;;;14.36;85.77
54854;BME280;40747;49.480;8.658;2024-02-15T09:34:52;100620.97;;;14.34;84.19
54854;BME280;40747;49.480;8.658;2024-02-15T09:37:17;100582.00;;;14.36;84.52
54854;BME280;40747;49.480;8.658;2024-02-15T09:39:43;100619.06;;;14.80;81.95
54854;BME280;40747;49.480;8.658;2024-02-15T09:42:08;100623.53;;;14.78;82.06
54854;BME280;40747;49.480;8.658;2024-02-15T09:44:34;100621.41;;;15.07;82.10
54854;BME280;40747;49.480;8.658;2024-02-15T09:47:04;100627.25;;;15.34;81.95
54854;BME280;40747;49.480;8.658;2024-02-15T09:49:37;100617.53;;;15.35;79.19
54854;BME280;40747;49.480;8.658;2024-02-15T09:52:06;100612.34;;;15.32;80.06
54854;BME280;40747;49.480;8.658;2024-02-15T09:54:32;100604.75;;;15.43;78.37
54854;BME280;40747;49.480;8.658;2024-02-15T09:57:01;100615.88;;;15.51;79.01
54854;BME280;40747;49.480;8.658;2024-02-15T09:59:26;100605.91;;;15.56;77.36
54854;BME280;40747;49.480;8.658;2024-02-15T10:01:52;100605.81;;;15.77;77.48
54854;BME280;40747;49.480;8.658;2024-02-15T10:04:20;100598.44;;;15.84;77.43
54854;BME280;40747;49.480;8.658;2024-02-15T10:06:45;100601.66;;;15.91;77.76
54854;BME280;40747;49.480;8.658;2024-02-15T10:09:43;100588.03;;;16.16;75.92
54854;BME280;40747;49.480;8.658;2024-02-15T10:12:08;100591.56;;;16.16;76.25
54854;BME280;40747;49.480;8.658;2024-02-15T10:14:35;100585.22;;;16.19;76.95
54854;BME280;40747;49.480;8.658;2024-02-15T10:17:07;100579.38;;;16.47;75.97
54854;BME280;40747;49.480;8.658;2024-02-15T10:19:39;100581.13;;;16.82;74.68
54854;BME280;40747;49.480;8.658;2024-02-15T10:22:09;100580.31;;;17.15;73.95
54854;BME280;40747;49.480;8.658;2024-02-15T10:24:36;100558.75;;;17.19;72.87
54854;BME280;40747;49.480;8.658;2024-02-15T10:27:03;100567.78;;;17.49;71.53
54854;BME280;40747;49.480;8.658;2024-02-15T10:29:29;100562.19;;;17.85;70.28
54854;BME280;40747;49.480;8.658;2024-02-15T10:31:59;100547.34;;;17.81;68.56
54854;BME280;40747;49.480;8.658;2024-02-15T10:34:25;100569.69;;;17.63;68.18
54854;BME280;40747;49.480;8.658;2024-02-15T10:36:54;100563.06;;;17.54;69.48
54854;BME280;40747;49.480;8.658;2024-02-15T10:39:22;100560.59;;;17.51;68.89
54854;BME280;40747;49.480;8.658;2024-02-15T10:41:53;100561.69;;;17.79;69.09
54854;BME280;40747;49.480;8.658;2024-02-15T10:44:23;100553.59;;;17.96;70.50
54854;BME280;40747;49.480;8.658;2024-02-15T10:46:50;100553.44;;;17.83;68.88
54854;BME280;40747;49.480;8.658;2024-02-15T10:49:19;100555.69;;;17.75;69.46
54854;BME280;40747;49.480;8.658;2024-02-15T10:51:50;100554.91;;;17.73;68.28
54854;BME280;40747;49.480;8.658;2024-02-15T10:54:22;100548.59;;;17.90;68.85
54854;BME280;40747;49.480;8.658;2024-02-15T10:56:52;100554.72;;;18.08;68.36
54854;BME280;40747;49.480;8.658;2024-02-15T10:59:24;100549.00;;;18.14;66.98
54854;BME280;40747;49.480;8.658;2024-02-15T11:01:59;100545.88;;;17.92;67.58
54854;BME280;40747;49.480;8.658;2024-02-15T11:04:25;100543.81;;;17.97;69.16
54854;BME280;40747;49.480;8.658;2024-02-15T11:06:58;100546.72;;;17.92;67.83
54854;BME280;40747;49.480;8.658;2024-02-15T11:09:23;100533.38;;;17.92;68.15
54854;BME280;40747;49.480;8.658;2024-02-15T11:11:52;100535.28;;;18.06;67.91
54854;BME280;40747;49.480;8.658;2024-02-15T11:14:31;100523.81;;;18.20;66.80
54854;BME280;40747;49.480;8.658;2024-02-15T11:16:57;100515.50;;;18.10;66.97
54854;BME280;40747;49.480;8.658;2024-02-15T11:22:01;100513.63;;;18.27;66.93
54854;BME280;40747;49.480;8.658;2024-02-15T11:24:32;100511.44;;;18.33;67.04
54854;BME280;40747;49.480;8.658;2024-02-15T11:27:01;100513.63;;;18.27;66.84
54854;BME280;40747;49.480;8.658;2024-02-15T11:32:34;100516.56;;;18.22;68.17
54854;BME280;40747;49.480;8.658;2024-02-15T11:35:08;100502.97;;;18.27;66.32
54854;BME280;40747;49.480;8.658;2024-02-15T11:40:15;100465.72;;;17.64;64.20
54854;BME280;40747;49.480;8.658;2024-02-15T11:42:42;100498.59;;;17.95;64.18
54854;BME280;40747;49.480;8.658;2024-02-15T11:45:08;100497.97;;;18.06;63.92
54854;BME280;40747;49.480;8.658;2024-02-15T11:47:37;100497.31;;;18.17;65.08
54854;BME280;40747;49.480;8.658;2024-02-15T11:50:02;100486.53;;;18.04;64.38
54854;BME280;40747;49.480;8.658;2024-02-15T11:52:28;100487.63;;;18.16;63.63
54854;BME280;40747;49.480;8.658;2024-02-15T11:54:53;100474.81;;;18.07;64.49
54854;BME280;40747;49.480;8.658;2024-02-15T11:57:28;100474.28;;;17.85;63.61
54854;BME280;40747;49.480;8.658;2024-02-15T12:00:02;100461.63;;;17.89;63.39
54854;BME280;40747;49.480;8.658;2024-02-15T12:02:46;100437.28;;;17.65;63.32
54854;BME280;40747;49.480;8.658;2024-02-15T12:05:30;100435.03;;;17.73;64.56
54854;BME280;40747;49.480;8.658;2024-02-15T12:08:14;100456.53;;;18.00;62.63
54854;BME280;40747;49.480;8.658;2024-02-15T12:10:59;100445.38;;;17.94;61.98
54854;BME280;40747;49.480;8.658;2024-02-15T12:13:43;100450.88;;;17.91;62.00
54854;BME280;40747;49.480;8.658;2024-02-15T12:16:27;100447.75;;;17.68;62.50
54854;BME280;40747;49.480;8.658;2024-02-15T12:19:11;100439.94;;;17.65;62.63
54854;BME280;40747;49.480;8.658;2024-02-15T12:21:37;100429.72;;;17.88;61.43
54854;BME280;40747;49.480;8.658;2024-02-15T12:24:07;100427.88;;;18.04;60.39
54854;BME280;40747;49.480;8.658;2024-02-15T12:26:32;100423.06;;;18.11;60.75
54854;BME280;40747;49.480;8.658;2024-02-15T12:28:59;100415.25;;;18.08;60.22
54854;BME280;40747;49.480;8.658;2024-02-15T12:31:26;100413.63;;;18.20;60.88
54854;BME280;40747;49.480;8.658;2024-02-15T12:34:02;100406.59;;;18.18;61.49
54854;BME280;40747;49.480;8.658;2024-02-15T12:36:32;100401.19;;;17.90;62.95
54854;BME280;40747;49.480;8.658;2024-02-15T12:39:03;100396.47;;;18.09;62.84
54854;BME280;40747;49.480;8.658;2024-02-15T12:41:35;100402.97;;;18.05;61.64
54854;BME280;40747;49.480;8.658;2024-02-15T12:44:01;100398.41;;;18.22;61.49
54854;BME280;40747;49.480;8.658;2024-02-15T12:46:27;100398.41;;;18.22;61.25
54854;BME280;40747;49.480;8.658;2024-02-15T12:49:06;100396.88;;;18.46;60.29
54854;BME280;40747;49.480;8.658;2024-02-15T12:51:31;100389.06;;;18.58;59.74
54854;BME280;40747;49.480;8.658;2024-02-15T12:54:08;100383.63;;;18.74;59.91